createdAt,value
2017-12-02T00:00:45.440Z,86.76
2017-12-02T00:01:45.375Z,86.19
2017-12-02T00:02:45.312Z,86.57
2017-12-02T00:03:45.252Z,87.04
2017-12-02T00:04:45.189Z,86.85
2017-12-02T00:05:45.128Z,86.57
2017-12-02T00:06:45.061Z,87.13
2017-12-02T00:07:44.995Z,86.85
2017-12-02T00:08:44.929Z,86.85
2017-12-02T00:09:44.863Z,87.04
2017-12-02T00:10:44.806Z,87.23
2017-12-02T00:11:44.737Z,87.13
2017-12-02T00:12:44.669Z,86.66
2017-12-02T00:13:44.610Z,86.57
2017-12-02T00:14:44.542Z,86.66
2017-12-02T00:15:44.482Z,86.94
2017-12-02T00:16:44.421Z,86.85
2017-12-02T00:17:44.358Z,86.85
2017-12-02T00:18:44.298Z,86.85
2017-12-02T00:19:44.222Z,87.13
2017-12-02T00:20:44.159Z,87.13
2017-12-02T00:21:44.102Z,86.94
2017-12-02T00:22:44.032Z,87.13
2017-12-02T00:23:43.965Z,86.94
2017-12-02T00:24:43.906Z,87.23
2017-12-02T00:25:43.835Z,87.42
2017-12-02T00:26:43.775Z,87.23
2017-12-02T00:27:43.714Z,87.32
2017-12-02T00:28:43.654Z,88.08
2017-12-02T00:29:43.586Z,87.32
2017-12-02T00:30:43.520Z,87.23
2017-12-02T00:31:43.462Z,87.13
2017-12-02T00:32:43.386Z,87.04
2017-12-02T00:33:43.405Z,87.98
2017-12-02T00:34:43.257Z,88.17
2017-12-02T00:35:43.208Z,87.89
2017-12-02T00:36:43.142Z,87.70
2017-12-02T00:37:43.078Z,87.79
2017-12-02T00:38:43.005Z,87.70
2017-12-02T00:39:42.950Z,87.51
2017-12-02T00:40:42.901Z,87.61
2017-12-02T00:41:42.810Z,87.61
2017-12-02T00:42:42.741Z,87.70
2017-12-02T00:43:42.675Z,87.61
2017-12-02T00:44:42.621Z,87.79
2017-12-02T00:45:42.547Z,87.61
2017-12-02T00:46:42.498Z,87.51
2017-12-02T00:47:42.437Z,87.70
2017-12-02T00:48:42.356Z,87.51
2017-12-02T00:49:42.301Z,87.89
2017-12-02T00:50:42.228Z,88.17
2017-12-02T00:51:42.176Z,87.70
2017-12-02T00:52:42.118Z,87.70
2017-12-02T00:53:42.047Z,87.51
2017-12-02T00:54:41.987Z,87.61
2017-12-02T00:55:41.930Z,88.08
2017-12-02T00:56:41.850Z,88.27
2017-12-02T00:57:41.781Z,88.27
2017-12-02T00:58:41.757Z,88.65
2017-12-02T00:59:41.678Z,88.36
2017-12-02T01:00:41.671Z,88.08
2017-12-02T01:01:41.540Z,87.84
2017-12-02T01:02:41.468Z,88.12
2017-12-02T01:03:41.406Z,88.17
2017-12-02T01:04:41.339Z,88.46
2017-12-02T01:05:41.276Z,88.31
2017-12-02T01:06:41.201Z,87.61
2017-12-02T01:07:41.151Z,87.61
2017-12-02T01:08:41.093Z,87.42
2017-12-02T01:09:41.026Z,87.51
2017-12-02T01:10:40.950Z,87.61
2017-12-02T01:11:40.906Z,87.61
2017-12-02T01:12:40.823Z,87.61
2017-12-02T01:13:40.761Z,87.70
2017-12-02T01:14:40.700Z,87.61
2017-12-02T01:15:40.632Z,87.61
2017-12-02T01:16:40.563Z,88.08
2017-12-02T01:17:40.509Z,87.79
2017-12-02T01:18:40.457Z,88.55
2017-12-02T01:19:40.380Z,87.84
2017-12-02T01:20:40.309Z,88.08
2017-12-02T01:21:40.243Z,88.27
2017-12-02T01:22:40.199Z,88.46
2017-12-02T01:23:40.122Z,88.79
2017-12-02T01:24:40.077Z,87.74
2017-12-02T01:25:39.998Z,87.89
2017-12-02T01:26:39.931Z,87.93
2017-12-02T01:27:39.860Z,87.70
2017-12-02T01:28:39.800Z,87.98
2017-12-02T01:29:39.733Z,88.31
2017-12-02T01:30:39.675Z,88.50
2017-12-02T01:31:39.609Z,88.79
2017-12-02T01:32:39.543Z,88.98
2017-12-02T01:33:39.489Z,89.07
2017-12-02T01:34:39.419Z,89.07
2017-12-02T01:35:39.358Z,88.98
2017-12-02T01:36:39.292Z,87.93
2017-12-02T01:37:39.221Z,88.31
2017-12-02T01:38:39.152Z,87.74
2017-12-02T01:39:39.098Z,87.65
2017-12-02T01:40:39.025Z,87.37
2017-12-02T01:41:38.975Z,87.55
2017-12-02T01:42:38.929Z,87.93
2017-12-02T01:43:38.847Z,87.93
2017-12-02T01:44:38.811Z,87.74
2017-12-02T01:45:38.721Z,88.22
2017-12-02T01:46:38.655Z,87.46
2017-12-02T01:47:38.609Z,87.65
2017-12-02T01:48:38.557Z,87.84
2017-12-02T01:49:38.466Z,87.93
2017-12-02T01:50:38.400Z,87.93
2017-12-02T01:51:38.328Z,87.74
2017-12-02T01:52:38.272Z,87.84
2017-12-02T01:53:38.207Z,87.08
2017-12-02T01:54:38.144Z,87.27
2017-12-02T01:55:38.088Z,87.27
2017-12-02T01:56:38.013Z,87.74
2017-12-02T01:57:37.939Z,88.31
2017-12-02T01:58:37.879Z,88.03
2017-12-02T01:59:37.825Z,87.93
2017-12-02T02:00:37.760Z,87.37
2017-12-02T02:01:37.694Z,87.27
2017-12-02T02:02:37.635Z,86.99
2017-12-02T02:03:37.572Z,87.46
2017-12-02T02:04:37.508Z,87.55
2017-12-02T02:05:37.449Z,87.18
2017-12-02T02:06:37.380Z,87.27
2017-12-02T02:07:37.312Z,86.61
2017-12-02T02:08:37.252Z,87.08
2017-12-02T02:09:37.189Z,87.08
2017-12-02T02:10:37.127Z,87.08
2017-12-02T02:11:37.055Z,86.71
2017-12-02T02:12:36.997Z,86.33
2017-12-02T02:13:36.933Z,86.99
2017-12-02T02:14:36.864Z,87.18
2017-12-02T02:15:36.807Z,86.80
2017-12-02T02:16:36.740Z,86.90
2017-12-02T02:17:36.673Z,86.61
2017-12-02T02:18:36.611Z,86.71
2017-12-02T02:19:36.554Z,86.52
2017-12-02T02:20:36.480Z,86.42
2017-12-02T02:21:36.415Z,86.52
2017-12-02T02:22:36.359Z,85.95
2017-12-02T02:23:36.292Z,86.23
2017-12-02T02:24:36.236Z,86.52
2017-12-02T02:25:36.161Z,86.14
2017-12-02T02:26:36.104Z,85.85
2017-12-02T02:27:36.037Z,86.14
2017-12-02T02:28:35.970Z,86.42
2017-12-02T02:29:35.906Z,86.71
2017-12-02T02:30:35.844Z,85.85
2017-12-02T02:31:35.780Z,85.66
2017-12-02T02:32:35.724Z,86.14
2017-12-02T02:33:35.659Z,85.38
2017-12-02T02:34:35.595Z,85.47
2017-12-02T02:35:35.543Z,84.63
2017-12-02T02:36:35.470Z,85.38
2017-12-02T02:37:35.399Z,85.66
2017-12-02T02:38:35.343Z,85.76
2017-12-02T02:39:35.274Z,86.33
2017-12-02T02:40:35.212Z,85.57
2017-12-02T02:41:35.154Z,86.42
2017-12-02T02:42:35.081Z,86.04
2017-12-02T02:43:35.016Z,86.71
2017-12-02T02:44:34.954Z,86.33
2017-12-02T02:45:34.892Z,86.14
2017-12-02T02:46:34.830Z,86.61
2017-12-02T02:47:34.763Z,86.52
2017-12-02T02:48:34.700Z,86.33
2017-12-02T02:49:34.635Z,85.19
2017-12-02T02:50:34.579Z,85.47
2017-12-02T02:51:34.514Z,85.57
2017-12-02T02:52:34.443Z,85.47
2017-12-02T02:53:34.388Z,85.47
2017-12-02T02:54:34.322Z,85.19
2017-12-02T02:55:34.253Z,85.19
2017-12-02T02:56:34.194Z,85.38
2017-12-02T02:57:34.129Z,85.38
2017-12-02T02:58:34.069Z,86.04
2017-12-02T02:59:33.998Z,85.47
2017-12-02T03:00:33.934Z,85.28
2017-12-02T03:01:33.871Z,85.38
2017-12-02T03:02:33.814Z,85.19
2017-12-02T03:03:33.748Z,84.91
2017-12-02T03:04:33.688Z,84.72
2017-12-02T03:05:33.627Z,84.81
2017-12-02T03:06:33.554Z,85.47
2017-12-02T03:07:33.496Z,86.42
2017-12-02T03:08:33.425Z,86.42
2017-12-02T03:09:33.368Z,85.95
2017-12-02T03:10:33.298Z,85.57
2017-12-02T03:11:33.236Z,85.76
2017-12-02T03:12:33.170Z,85.47
2017-12-02T03:13:33.113Z,84.91
2017-12-02T03:14:33.043Z,85.19
2017-12-02T03:15:32.981Z,85.38
2017-12-02T03:16:32.923Z,85.57
2017-12-02T03:17:32.858Z,85.66
2017-12-02T03:18:32.792Z,85.28
2017-12-02T03:19:32.726Z,85.95
2017-12-02T03:20:32.662Z,86.23
2017-12-02T03:21:32.598Z,85.57
2017-12-02T03:22:32.532Z,85.66
2017-12-02T03:23:32.478Z,85.57
2017-12-02T03:24:32.412Z,85.66
2017-12-02T03:25:32.348Z,86.61
2017-12-02T03:26:32.285Z,86.71
2017-12-02T03:27:32.221Z,86.61
2017-12-02T03:28:32.158Z,86.42
2017-12-02T03:29:32.095Z,86.23
2017-12-02T03:30:32.025Z,86.23
2017-12-02T03:31:31.968Z,86.14
2017-12-02T03:32:31.895Z,86.52
2017-12-02T03:33:31.832Z,85.95
2017-12-02T03:34:31.774Z,86.04
2017-12-02T03:35:31.712Z,86.14
2017-12-02T03:36:31.641Z,86.14
2017-12-02T03:37:31.578Z,86.33
2017-12-02T03:38:31.514Z,86.33
2017-12-02T03:39:31.458Z,85.76
2017-12-02T03:40:31.386Z,85.95
2017-12-02T03:41:31.324Z,86.23
2017-12-02T03:42:31.264Z,86.33
2017-12-02T03:43:31.201Z,86.23
2017-12-02T03:44:31.134Z,86.42
2017-12-02T03:45:31.068Z,86.71
2017-12-02T03:46:31.004Z,86.14
2017-12-02T03:47:30.940Z,86.14
2017-12-02T03:48:30.876Z,85.95
2017-12-02T03:49:30.823Z,85.57
2017-12-02T03:50:30.749Z,85.28
2017-12-02T03:51:30.686Z,85.57
2017-12-02T03:52:30.622Z,86.14
2017-12-02T03:53:30.565Z,85.95
2017-12-02T03:54:30.495Z,85.66
2017-12-02T03:55:30.438Z,86.23
2017-12-02T03:56:30.373Z,86.14
2017-12-02T03:57:30.303Z,85.47
2017-12-02T03:58:30.239Z,85.95
2017-12-02T03:59:30.183Z,85.85
2017-12-02T04:00:30.117Z,86.14
2017-12-02T04:01:30.055Z,86.61
2017-12-02T04:02:29.984Z,86.14
2017-12-02T04:03:29.929Z,86.61
2017-12-02T04:04:29.857Z,86.80
2017-12-02T04:05:29.799Z,86.80
2017-12-02T04:06:29.736Z,86.90
2017-12-02T04:07:29.672Z,86.80
2017-12-02T04:08:29.606Z,87.27
2017-12-02T04:09:29.541Z,86.90
2017-12-02T04:10:29.476Z,86.52
2017-12-02T04:11:29.411Z,86.52
2017-12-02T04:12:29.354Z,86.61
2017-12-02T04:13:29.284Z,86.61
2017-12-02T04:14:29.220Z,86.71
2017-12-02T04:15:29.161Z,86.23
2017-12-02T04:16:29.094Z,85.95
2017-12-02T04:17:29.038Z,86.23
2017-12-02T04:18:28.967Z,86.14
2017-12-02T04:19:28.913Z,86.61
2017-12-02T04:20:28.877Z,85.95
2017-12-02T04:21:28.782Z,86.61
2017-12-02T04:22:28.715Z,85.38
2017-12-02T04:23:28.652Z,85.57
2017-12-02T04:24:28.587Z,85.85
2017-12-02T04:25:28.522Z,86.52
2017-12-02T04:26:28.465Z,86.61
2017-12-02T04:27:28.396Z,86.23
2017-12-02T04:28:28.331Z,85.95
2017-12-02T04:29:28.274Z,85.76
2017-12-02T04:30:28.207Z,86.14
2017-12-02T04:31:28.141Z,85.19
2017-12-02T04:32:28.084Z,85.47
2017-12-02T04:33:28.014Z,85.38
2017-12-02T04:34:27.956Z,85.38
2017-12-02T04:35:27.896Z,85.38
2017-12-02T04:36:27.824Z,85.00
2017-12-02T04:37:27.767Z,85.19
2017-12-02T04:38:27.697Z,85.57
2017-12-02T04:39:27.634Z,85.19
2017-12-02T04:40:27.570Z,85.66
2017-12-02T04:41:27.513Z,85.38
2017-12-02T04:42:27.443Z,85.38
2017-12-02T04:43:27.379Z,84.25
2017-12-02T04:44:27.321Z,84.16
2017-12-02T04:45:27.253Z,84.25
2017-12-02T04:46:27.192Z,83.97
2017-12-02T04:47:27.131Z,84.25
2017-12-02T04:48:27.068Z,84.72
2017-12-02T04:49:27.004Z,85.47
2017-12-02T04:50:26.935Z,85.47
2017-12-02T04:51:26.872Z,85.28
2017-12-02T04:52:26.808Z,84.81
2017-12-02T04:53:26.751Z,84.44
2017-12-02T04:54:26.688Z,83.68
2017-12-02T04:55:26.625Z,83.97
2017-12-02T04:56:26.556Z,83.97
2017-12-02T04:57:26.500Z,83.78
2017-12-02T04:58:26.428Z,83.78
2017-12-02T04:59:26.391Z,83.87
2017-12-02T05:00:26.308Z,84.16
2017-12-02T05:01:26.244Z,83.87
2017-12-02T05:02:26.176Z,83.87
2017-12-02T05:03:26.114Z,84.06
2017-12-02T05:04:26.050Z,83.49
2017-12-02T05:05:25.985Z,83.97
2017-12-02T05:06:25.929Z,83.97
2017-12-02T05:07:25.865Z,82.83
2017-12-02T05:08:25.797Z,82.64
2017-12-02T05:09:25.731Z,82.83
2017-12-02T05:10:25.669Z,83.68
2017-12-02T05:11:25.605Z,83.40
2017-12-02T05:12:25.545Z,82.45
2017-12-02T05:13:25.483Z,82.26
2017-12-02T05:14:25.414Z,82.73
2017-12-02T05:15:25.352Z,83.02
2017-12-02T05:16:25.295Z,82.45
2017-12-02T05:17:25.231Z,82.54
2017-12-02T05:18:25.160Z,82.35
2017-12-02T05:19:25.104Z,82.83
2017-12-02T05:20:25.039Z,83.21
2017-12-02T05:21:24.976Z,82.73
2017-12-02T05:22:24.912Z,82.45
2017-12-02T05:23:24.844Z,82.64
2017-12-02T05:24:24.779Z,82.45
2017-12-02T05:25:24.715Z,82.83
2017-12-02T05:26:24.661Z,82.92
2017-12-02T05:27:24.592Z,82.26
2017-12-02T05:28:24.527Z,82.17
2017-12-02T05:29:24.469Z,83.02
2017-12-02T05:30:24.404Z,81.60
2017-12-02T05:31:24.343Z,81.03
2017-12-02T05:32:24.278Z,81.88
2017-12-02T05:33:24.214Z,82.07
2017-12-02T05:34:24.151Z,82.07
2017-12-02T05:35:24.080Z,81.60
2017-12-02T05:36:24.161Z,81.60
2017-12-02T05:37:23.967Z,81.88
2017-12-02T05:38:23.891Z,81.98
2017-12-02T05:39:23.833Z,81.70
2017-12-02T05:40:23.774Z,81.03
2017-12-02T05:41:23.703Z,81.13
2017-12-02T05:42:23.637Z,81.79
2017-12-02T05:43:23.577Z,81.88
2017-12-02T05:44:23.508Z,81.41
2017-12-02T05:45:23.448Z,81.03
2017-12-02T05:46:23.388Z,80.75
2017-12-02T05:47:23.324Z,80.84
2017-12-02T05:48:23.260Z,80.65
2017-12-02T05:49:23.196Z,80.46
2017-12-02T05:50:23.133Z,80.75
2017-12-02T05:51:23.081Z,81.22
2017-12-02T05:52:23.009Z,81.32
2017-12-02T05:53:22.943Z,81.13
2017-12-02T05:54:22.874Z,80.75
2017-12-02T05:55:22.822Z,80.84
2017-12-02T05:56:22.749Z,80.56
2017-12-02T05:57:22.684Z,80.75
2017-12-02T05:58:22.627Z,81.32
2017-12-02T05:59:22.559Z,80.75
2017-12-02T06:00:22.493Z,81.03
2017-12-02T06:01:22.437Z,81.03
2017-12-02T06:02:22.368Z,81.32
2017-12-02T06:03:22.308Z,81.13
2017-12-02T06:04:22.245Z,81.22
2017-12-02T06:05:22.178Z,81.13
2017-12-02T06:06:22.120Z,81.13
2017-12-02T06:07:22.053Z,81.32
2017-12-02T06:08:21.990Z,80.84
2017-12-02T06:09:21.925Z,80.75
2017-12-02T06:10:21.858Z,80.75
2017-12-02T06:11:21.801Z,81.13
2017-12-02T06:12:21.731Z,81.32
2017-12-02T06:13:21.667Z,81.13
2017-12-02T06:14:21.609Z,81.60
2017-12-02T06:15:21.545Z,81.98
2017-12-02T06:16:21.479Z,81.32
2017-12-02T06:17:21.416Z,80.84
2017-12-02T06:18:21.351Z,81.60
2017-12-02T06:19:21.291Z,81.88
2017-12-02T06:20:21.224Z,82.78
2017-12-02T06:21:21.161Z,82.54
2017-12-02T06:22:21.100Z,82.73
2017-12-02T06:23:21.030Z,82.45
2017-12-02T06:24:20.976Z,82.35
2017-12-02T06:25:20.907Z,82.35
2017-12-02T06:26:20.844Z,81.98
2017-12-02T06:27:20.775Z,82.54
2017-12-02T06:28:20.713Z,82.54
2017-12-02T06:29:20.653Z,82.54
2017-12-02T06:30:20.589Z,83.11
2017-12-02T06:31:20.529Z,82.73
2017-12-02T06:32:20.457Z,82.54
2017-12-02T06:33:20.398Z,82.45
2017-12-02T06:34:20.340Z,83.02
2017-12-02T06:35:20.272Z,83.40
2017-12-02T06:36:20.199Z,83.21
2017-12-02T06:37:20.145Z,83.02
2017-12-02T06:38:20.082Z,82.35
2017-12-02T06:39:20.008Z,82.73
2017-12-02T06:40:19.972Z,83.78
2017-12-02T06:41:19.891Z,83.11
2017-12-02T06:42:19.823Z,82.83
2017-12-02T06:43:19.756Z,83.40
2017-12-02T06:44:19.704Z,83.40
2017-12-02T06:45:19.630Z,83.30
2017-12-02T06:46:19.574Z,82.92
2017-12-02T06:47:19.508Z,83.49
2017-12-02T06:48:19.447Z,83.68
2017-12-02T06:49:19.389Z,83.40
2017-12-02T06:50:19.312Z,83.68
2017-12-02T06:51:19.249Z,83.78
2017-12-02T06:52:19.187Z,83.49
2017-12-02T06:53:19.120Z,83.44
2017-12-02T06:54:19.065Z,82.64
2017-12-02T06:55:18.998Z,82.54
2017-12-02T06:56:18.930Z,82.64
2017-12-02T06:57:18.868Z,83.11
2017-12-02T06:58:18.804Z,83.30
2017-12-02T06:59:18.739Z,84.10
2017-12-02T07:00:18.678Z,83.68
2017-12-02T07:01:18.617Z,82.78
2017-12-02T07:02:18.550Z,83.44
2017-12-02T07:03:18.487Z,83.06
2017-12-02T07:04:18.421Z,82.59
2017-12-02T07:05:18.362Z,81.88
2017-12-02T07:06:18.307Z,81.93
2017-12-02T07:07:18.237Z,82.35
2017-12-02T07:08:18.169Z,81.98
2017-12-02T07:09:18.105Z,81.32
2017-12-02T07:10:18.044Z,81.36
2017-12-02T07:11:17.977Z,80.56
2017-12-02T07:12:17.935Z,80.94
2017-12-02T07:13:17.872Z,79.52
2017-12-02T07:14:17.792Z,80.27
2017-12-02T07:15:17.734Z,80.56
2017-12-02T07:16:17.662Z,80.27
2017-12-02T07:17:17.602Z,80.65
2017-12-02T07:18:17.537Z,80.41
2017-12-02T07:19:17.479Z,80.18
2017-12-02T07:20:17.410Z,79.66
2017-12-02T07:21:17.352Z,79.05
2017-12-02T07:22:17.280Z,79.43
2017-12-02T07:23:17.217Z,78.67
2017-12-02T07:24:17.158Z,78.76
2017-12-02T07:25:17.098Z,78.48
2017-12-02T07:26:17.030Z,78.76
2017-12-02T07:27:16.963Z,78.20
2017-12-02T07:28:16.908Z,78.20
2017-12-02T07:29:16.839Z,78.58
2017-12-02T07:30:16.779Z,77.91
2017-12-02T07:31:16.724Z,78.14
2017-12-02T07:32:16.649Z,77.76
2017-12-02T07:33:16.588Z,77.15
2017-12-02T07:34:16.519Z,77.29
2017-12-02T07:35:16.461Z,77.29
2017-12-02T07:36:16.394Z,77.48
2017-12-02T07:37:16.331Z,78.01
2017-12-02T07:38:16.265Z,77.34
2017-12-02T07:39:16.202Z,76.87
2017-12-02T07:40:16.165Z,77.29
2017-12-02T07:41:16.082Z,76.72
2017-12-02T07:42:16.012Z,76.97
2017-12-02T07:43:15.953Z,77.01
2017-12-02T07:44:15.896Z,76.78
2017-12-02T07:45:15.824Z,77.06
2017-12-02T07:46:15.756Z,77.20
2017-12-02T07:47:15.695Z,77.25
2017-12-02T07:48:15.627Z,77.34
2017-12-02T07:49:15.573Z,77.72
2017-12-02T07:50:15.499Z,77.39
2017-12-02T07:51:15.438Z,76.87
2017-12-02T07:52:15.374Z,76.97
2017-12-02T07:53:15.310Z,76.50
2017-12-02T07:54:15.254Z,76.78
2017-12-02T07:55:15.190Z,76.59
2017-12-02T07:56:15.119Z,76.87
2017-12-02T07:57:15.067Z,76.15
2017-12-02T07:58:14.994Z,75.87
2017-12-02T07:59:14.935Z,76.78
2017-12-02T08:00:14.875Z,76.87
2017-12-02T08:01:14.812Z,77.67
2017-12-02T08:02:14.747Z,77.20
2017-12-02T08:03:14.685Z,76.91
2017-12-02T08:04:14.616Z,76.78
2017-12-02T08:05:14.558Z,77.15
2017-12-02T08:06:14.491Z,76.72
2017-12-02T08:07:14.438Z,76.12
2017-12-02T08:08:14.351Z,76.21
2017-12-02T08:09:14.305Z,76.40
2017-12-02T08:10:14.238Z,76.12
2017-12-02T08:11:14.167Z,76.50
2017-12-02T08:12:14.105Z,76.87
2017-12-02T08:13:14.045Z,77.58
2017-12-02T08:14:13.983Z,78.14
2017-12-02T08:15:13.923Z,77.82
2017-12-02T08:16:13.851Z,76.50
2017-12-02T08:17:13.784Z,77.39
2017-12-02T08:18:13.728Z,76.68
2017-12-02T08:19:13.669Z,77.01
2017-12-02T08:20:13.604Z,76.72
2017-12-02T08:21:13.537Z,76.68
2017-12-02T08:22:13.482Z,76.82
2017-12-02T08:23:13.409Z,76.78
2017-12-02T08:24:13.344Z,77.44
2017-12-02T08:25:13.273Z,76.82
2017-12-02T08:26:13.228Z,77.25
2017-12-02T08:27:13.155Z,77.67
2017-12-02T08:28:13.093Z,77.72
2017-12-02T08:29:13.024Z,77.10
2017-12-02T08:30:12.995Z,77.58
2017-12-02T08:31:12.895Z,77.76
2017-12-02T08:32:12.833Z,77.29
2017-12-02T08:33:12.773Z,77.58
2017-12-02T08:34:12.726Z,77.95
2017-12-02T08:35:12.650Z,77.58
2017-12-02T08:36:12.585Z,77.53
2017-12-02T08:37:12.517Z,77.29
2017-12-02T08:38:12.464Z,76.87
2017-12-02T08:39:12.395Z,76.78
2017-12-02T08:40:12.333Z,77.15
2017-12-02T08:41:12.278Z,78.14
2017-12-02T08:42:12.213Z,77.29
2017-12-02T08:43:12.142Z,77.63
2017-12-02T08:44:12.090Z,77.67
2017-12-02T08:45:12.017Z,77.29
2017-12-02T08:46:11.957Z,77.25
2017-12-02T08:47:11.887Z,76.87
2017-12-02T08:48:11.832Z,77.67
2017-12-02T08:49:11.770Z,77.58
2017-12-02T08:50:11.694Z,77.82
2017-12-02T08:51:11.632Z,77.34
2017-12-02T08:52:11.590Z,77.58
2017-12-02T08:53:11.511Z,77.44
2017-12-02T08:54:11.445Z,77.34
2017-12-02T08:55:11.385Z,77.29
2017-12-02T08:56:11.317Z,77.67
2017-12-02T08:57:11.272Z,78.05
2017-12-02T08:58:11.191Z,76.63
2017-12-02T08:59:11.122Z,77.48
2017-12-02T09:00:11.063Z,76.82
2017-12-02T09:01:11.028Z,77.39
2017-12-02T09:02:10.943Z,77.67
2017-12-02T09:03:10.866Z,78.23
2017-12-02T09:04:10.851Z,77.58
2017-12-02T09:05:10.747Z,78.23
2017-12-02T09:06:10.686Z,77.39
2017-12-02T09:07:10.626Z,77.29
2017-12-02T09:08:10.559Z,77.01
2017-12-02T09:09:10.486Z,76.91
2017-12-02T09:10:10.428Z,76.50
2017-12-02T09:11:10.358Z,77.39
2017-12-02T09:12:10.308Z,77.58
2017-12-02T09:13:10.238Z,77.39
2017-12-02T09:14:10.191Z,76.53
2017-12-02T09:15:10.124Z,77.25
2017-12-02T09:16:10.053Z,77.44
2017-12-02T09:17:09.988Z,77.39
2017-12-02T09:18:09.926Z,78.05
2017-12-02T09:19:09.868Z,77.86
2017-12-02T09:20:09.801Z,77.48
2017-12-02T09:21:09.729Z,77.58
2017-12-02T09:22:09.667Z,77.39
2017-12-02T09:23:09.602Z,77.48
2017-12-02T09:24:09.543Z,77.58
2017-12-02T09:25:09.477Z,76.63
2017-12-02T09:26:09.407Z,77.29
2017-12-02T09:27:09.424Z,77.01
2017-12-02T09:28:09.303Z,77.15
2017-12-02T09:29:09.235Z,77.15
2017-12-02T09:30:09.171Z,78.01
2017-12-02T09:31:09.094Z,77.20
2017-12-02T09:32:09.039Z,76.91
2017-12-02T09:33:08.969Z,77.29
2017-12-02T09:34:08.942Z,76.72
2017-12-02T09:35:08.854Z,76.91
2017-12-02T09:36:08.780Z,76.53
2017-12-02T09:37:08.717Z,76.72
2017-12-02T09:38:08.696Z,76.63
2017-12-02T09:39:08.595Z,76.82
2017-12-02T09:40:08.531Z,77.10
2017-12-02T09:41:08.469Z,77.01
2017-12-02T09:42:08.397Z,76.82
2017-12-02T09:43:08.347Z,77.39
2017-12-02T09:44:08.286Z,76.63
2017-12-02T09:45:08.280Z,76.63
2017-12-02T09:46:08.173Z,76.34
2017-12-02T09:47:08.094Z,76.12
2017-12-02T09:48:08.039Z,76.87
2017-12-02T09:49:07.955Z,77.06
2017-12-02T09:50:07.905Z,76.15
2017-12-02T09:51:07.841Z,76.59
2017-12-02T09:52:07.770Z,77.34
2017-12-02T09:53:07.716Z,77.58
2017-12-02T09:54:07.651Z,77.01
2017-12-02T09:55:07.582Z,76.72
2017-12-02T09:56:07.518Z,76.34
2017-12-02T09:57:07.457Z,76.82
2017-12-02T09:58:07.409Z,76.15
2017-12-02T09:59:07.336Z,75.87
2017-12-02T10:00:07.271Z,75.87
2017-12-02T10:01:07.202Z,76.06
2017-12-02T10:02:07.146Z,75.87
2017-12-02T10:03:07.083Z,76.06
2017-12-02T10:04:07.019Z,75.21
2017-12-02T10:05:06.957Z,75.59
2017-12-02T10:06:06.892Z,75.59
2017-12-02T10:07:06.824Z,75.49
2017-12-02T10:08:06.770Z,74.64
2017-12-02T10:09:06.700Z,74.93
2017-12-02T10:10:06.634Z,74.93
2017-12-02T10:11:06.601Z,75.40
2017-12-02T10:12:06.514Z,75.02
2017-12-02T10:13:06.449Z,74.55
2017-12-02T10:14:06.388Z,74.83
2017-12-02T10:15:06.326Z,74.55
2017-12-02T10:16:06.256Z,74.36
2017-12-02T10:17:06.191Z,74.93
2017-12-02T10:18:06.137Z,74.83
2017-12-02T10:19:06.067Z,74.83
2017-12-02T10:20:06.011Z,74.17
2017-12-02T10:21:05.947Z,74.07
2017-12-02T10:22:05.878Z,74.07
2017-12-02T10:23:05.822Z,74.55
2017-12-02T10:24:05.759Z,75.02
2017-12-02T10:25:05.697Z,74.64
2017-12-02T10:26:05.632Z,74.36
2017-12-02T10:27:05.568Z,73.79
2017-12-02T10:28:05.507Z,75.12
2017-12-02T10:29:05.445Z,75.31
2017-12-02T10:30:05.382Z,74.83
2017-12-02T10:31:05.318Z,74.93
2017-12-02T10:32:05.279Z,74.45
2017-12-02T10:33:05.201Z,74.17
2017-12-02T10:34:05.124Z,74.45
2017-12-02T10:35:05.062Z,75.21
2017-12-02T10:36:05.004Z,74.83
2017-12-02T10:37:04.939Z,73.88
2017-12-02T10:38:04.873Z,73.79
2017-12-02T10:39:04.811Z,73.98
2017-12-02T10:40:04.750Z,74.45
2017-12-02T10:41:04.685Z,74.93
2017-12-02T10:42:04.620Z,75.12
2017-12-02T10:43:04.564Z,74.26
2017-12-02T10:44:04.495Z,74.83
2017-12-02T10:45:04.441Z,74.74
2017-12-02T10:46:04.377Z,74.55
2017-12-02T10:47:04.317Z,73.50
2017-12-02T10:48:04.250Z,74.83
2017-12-02T10:49:04.189Z,74.17
2017-12-02T10:50:04.125Z,74.45
2017-12-02T10:51:04.057Z,74.83
2017-12-02T10:52:03.994Z,75.02
2017-12-02T10:53:03.931Z,74.64
2017-12-02T10:54:03.869Z,75.12
2017-12-02T10:55:03.806Z,74.45
2017-12-02T10:56:03.748Z,73.88
2017-12-02T10:57:03.679Z,74.17
2017-12-02T10:58:03.623Z,74.07
2017-12-02T10:59:03.560Z,73.69
2017-12-02T11:00:03.490Z,73.79
2017-12-02T11:01:03.429Z,73.79
2017-12-02T11:02:03.375Z,73.69
2017-12-02T11:03:03.308Z,73.98
2017-12-02T11:04:03.239Z,74.83
2017-12-02T11:05:03.180Z,73.88
2017-12-02T11:06:03.114Z,73.79
2017-12-02T11:07:03.048Z,74.83
2017-12-02T11:08:02.991Z,74.17
2017-12-02T11:09:02.932Z,73.79
2017-12-02T11:10:02.870Z,73.88
2017-12-02T11:11:02.808Z,73.88
2017-12-02T11:12:02.744Z,73.79
2017-12-02T11:13:02.676Z,73.60
2017-12-02T11:14:02.612Z,73.98
2017-12-02T11:15:02.559Z,73.98
2017-12-02T11:16:02.486Z,73.88
2017-12-02T11:17:02.423Z,75.12
2017-12-02T11:18:02.362Z,74.45
2017-12-02T11:19:02.303Z,74.17
2017-12-02T11:20:02.241Z,74.17
2017-12-02T11:21:02.172Z,73.69
2017-12-02T11:22:02.126Z,74.26
2017-12-02T11:23:02.048Z,74.17
2017-12-02T11:24:01.996Z,73.50
2017-12-02T11:25:01.927Z,73.69
2017-12-02T11:26:01.857Z,73.22
2017-12-02T11:27:01.796Z,73.41
2017-12-02T11:28:01.732Z,72.66
2017-12-02T11:29:01.668Z,73.03
2017-12-02T11:30:01.609Z,73.03
2017-12-02T11:31:01.544Z,73.13
2017-12-02T11:32:01.486Z,72.94
2017-12-02T11:33:01.419Z,73.03
2017-12-02T11:34:01.358Z,72.66
2017-12-02T11:35:01.299Z,72.94
2017-12-02T11:36:01.236Z,73.98
2017-12-02T11:37:01.173Z,73.41
2017-12-02T11:38:01.104Z,73.13
2017-12-02T11:39:01.042Z,72.47
2017-12-02T11:40:00.978Z,72.09
2017-12-02T11:41:00.915Z,71.71
2017-12-02T11:42:00.853Z,71.33
2017-12-02T11:43:00.796Z,71.90
2017-12-02T11:44:00.731Z,73.50
2017-12-02T11:45:00.679Z,72.85
2017-12-02T11:46:00.602Z,72.47
2017-12-02T11:47:00.546Z,72.09
2017-12-02T11:48:00.482Z,73.03
2017-12-02T11:49:00.419Z,73.22
2017-12-02T11:50:00.367Z,72.66
2017-12-02T11:51:00.289Z,72.37
2017-12-02T11:52:00.231Z,73.32
2017-12-02T11:53:00.187Z,72.37
2017-12-02T11:54:00.098Z,71.80
2017-12-02T11:55:00.038Z,72.09
2017-12-02T11:55:59.980Z,72.09
2017-12-02T11:56:59.917Z,72.56
2017-12-02T11:57:59.847Z,72.47
2017-12-02T11:58:59.785Z,72.47
2017-12-02T11:59:59.723Z,72.66
2017-12-02T12:00:59.665Z,72.09
2017-12-02T12:01:59.602Z,72.56
2017-12-02T12:02:59.535Z,72.56
2017-12-02T12:03:59.475Z,72.56
2017-12-02T12:04:59.407Z,72.56
2017-12-02T12:05:59.358Z,72.94
2017-12-02T12:06:59.323Z,72.09
2017-12-02T12:07:59.219Z,71.90
2017-12-02T12:08:59.156Z,71.90
2017-12-02T12:09:59.102Z,71.61
2017-12-02T12:10:59.047Z,71.71
2017-12-02T12:11:58.974Z,71.90
2017-12-02T12:12:58.911Z,72.37
2017-12-02T12:13:58.845Z,73.03
2017-12-02T12:14:58.804Z,73.13
2017-12-02T12:15:58.719Z,71.90
2017-12-02T12:16:58.660Z,71.52
2017-12-02T12:17:58.601Z,71.33
2017-12-02T12:18:58.527Z,71.33
2017-12-02T12:19:58.466Z,71.33
2017-12-02T12:20:58.402Z,71.61
2017-12-02T12:21:58.341Z,71.80
2017-12-02T12:22:58.284Z,71.80
2017-12-02T12:23:58.213Z,71.23
2017-12-02T12:24:58.151Z,71.14
2017-12-02T12:25:58.130Z,71.42
2017-12-02T12:26:58.032Z,71.71
2017-12-02T12:27:57.960Z,71.52
2017-12-02T12:28:57.964Z,71.71
2017-12-02T12:29:57.843Z,71.61
2017-12-02T12:30:57.780Z,71.52
2017-12-02T12:31:57.711Z,71.80
2017-12-02T12:32:57.651Z,71.61
2017-12-02T12:33:57.584Z,71.61
2017-12-02T12:34:57.527Z,71.80
2017-12-02T12:35:57.467Z,71.80
2017-12-02T12:36:57.400Z,71.71
2017-12-02T12:37:57.339Z,71.90
2017-12-02T12:38:57.277Z,71.90
2017-12-02T12:39:57.208Z,71.23
2017-12-02T12:40:57.150Z,70.95
2017-12-02T12:41:57.089Z,71.33
2017-12-02T12:42:57.028Z,71.61
2017-12-02T12:43:56.961Z,71.90
2017-12-02T12:44:56.894Z,71.33
2017-12-02T12:45:56.840Z,71.42
2017-12-02T12:46:56.774Z,71.71
2017-12-02T12:47:56.704Z,71.52
2017-12-02T12:48:56.642Z,71.80
2017-12-02T12:49:56.583Z,71.99
2017-12-02T12:50:56.575Z,71.80
2017-12-02T12:51:56.452Z,72.28